sensor_id;sensor_type;location;lat;lon;timestamp;P1;durP1;ratioP1;P2;durP2;ratioP2
13415;SDS011;6779;50.150;8.680;2022-07-29T00:02:02;1.17;;;1.07;;
13415;SDS011;6779;50.150;8.680;2022-07-29T00:04:28;4.60;;;1.37;;
13415;SDS011;6779;50.150;8.680;2022-07-29T00:06:53;1.27;;;1.17;;
13415;SDS011;6779;50.150;8.680;2022-07-29T00:09:19;0.97;;;0.93;;
13415;SDS011;6779;50.150;8.680;2022-07-29T00:11:44;1.87;;;1.50;;
13415;SDS011;6779;50.150;8.680;2022-07-29T00:14:10;2.17;;;1.10;;
13415;SDS011;6779;50.150;8.680;2022-07-29T00:16:36;2.43;;;1.30;;
13415;SDS011;6779;50.150;8.680;2022-07-29T00:19:02;1.43;;;1.30;;
13415;SDS011;6779;50.150;8.680;2022-07-29T00:21:28;2.13;;;1.13;;
13415;SDS011;6779;50.150;8.680;2022-07-29T00:23:53;1.10;;;1.00;;
13415;SDS011;6779;50.150;8.680;2022-07-29T00:26:19;1.13;;;1.03;;
13415;SDS011;6779;50.150;8.680;2022-07-29T00:28:44;1.63;;;1.20;;
13415;SDS011;6779;50.150;8.680;2022-07-29T00:31:10;1.70;;;1.40;;
13415;SDS011;6779;50.150;8.680;2022-07-29T00:33:36;2.77;;;1.40;;
13415;SDS011;6779;50.150;8.680;2022-07-29T00:36:02;3.13;;;1.37;;
13415;SDS011;6779;50.150;8.680;2022-07-29T00:38:27;0.90;;;0.90;;
13415;SDS011;6779;50.150;8.680;2022-07-29T00:40:53;1.03;;;1.00;;
13415;SDS011;6779;50.150;8.680;2022-07-29T00:43:19;3.87;;;1.30;;
13415;SDS011;6779;50.150;8.680;2022-07-29T00:45:45;2.50;;;1.33;;
13415;SDS011;6779;50.150;8.680;2022-07-29T00:48:11;1.63;;;1.37;;
13415;SDS011;6779;50.150;8.680;2022-07-29T00:50:37;1.47;;;1.17;;
13415;SDS011;6779;50.150;8.680;2022-07-29T00:53:03;2.07;;;1.50;;
13415;SDS011;6779;50.150;8.680;2022-07-29T00:55:30;1.27;;;1.17;;
13415;SDS011;6779;50.150;8.680;2022-07-29T00:57:56;1.73;;;1.20;;
13415;SDS011;6779;50.150;8.680;2022-07-29T01:00:23;1.80;;;1.27;;
13415;SDS011;6779;50.150;8.680;2022-07-29T01:02:50;1.60;;;1.37;;
13415;SDS011;6779;50.150;8.680;2022-07-29T01:05:16;1.53;;;1.20;;
13415;SDS011;6779;50.150;8.680;2022-07-29T01:07:43;1.50;;;1.30;;
13415;SDS011;6779;50.150;8.680;2022-07-29T01:10:10;2.17;;;1.13;;
13415;SDS011;6779;50.150;8.680;2022-07-29T01:12:38;2.90;;;1.63;;
13415;SDS011;6779;50.150;8.680;2022-07-29T01:15:05;1.57;;;1.30;;
13415;SDS011;6779;50.150;8.680;2022-07-29T01:17:33;1.93;;;1.40;;
13415;SDS011;6779;50.150;8.680;2022-07-29T01:25:30;2.40;;;1.47;;
13415;SDS011;6779;50.150;8.680;2022-07-29T01:31:10;4.07;;;1.50;;
13415;SDS011;6779;50.150;8.680;2022-07-29T01:33:41;1.50;;;1.20;;
13415;SDS011;6779;50.150;8.680;2022-07-29T01:36:22;1.30;;;1.20;;
13415;SDS011;6779;50.150;8.680;2022-07-29T01:39:54;2.87;;;1.33;;
13415;SDS011;6779;50.150;8.680;2022-07-29T01:44:41;3.70;;;1.37;;
13415;SDS011;6779;50.150;8.680;2022-07-29T01:47:15;2.40;;;1.40;;
13415;SDS011;6779;50.150;8.680;2022-07-29T01:49:46;2.23;;;1.50;;
13415;SDS011;6779;50.150;8.680;2022-07-29T01:52:19;1.33;;;1.20;;
13415;SDS011;6779;50.150;8.680;2022-07-29T01:54:49;1.87;;;1.67;;
13415;SDS011;6779;50.150;8.680;2022-07-29T01:57:20;1.63;;;1.37;;
13415;SDS011;6779;50.150;8.680;2022-07-29T01:59:50;3.33;;;1.43;;
13415;SDS011;6779;50.150;8.680;2022-07-29T02:02:18;2.03;;;1.60;;
13415;SDS011;6779;50.150;8.680;2022-07-29T02:04:45;3.47;;;1.80;;
13415;SDS011;6779;50.150;8.680;2022-07-29T02:07:16;1.60;;;1.20;;
13415;SDS011;6779;50.150;8.680;2022-07-29T02:09:44;3.00;;;1.40;;
13415;SDS011;6779;50.150;8.680;2022-07-29T02:12:12;3.17;;;1.60;;
13415;SDS011;6779;50.150;8.680;2022-07-29T02:14:40;3.10;;;1.63;;
13415;SDS011;6779;50.150;8.680;2022-07-29T02:17:10;3.47;;;1.53;;
13415;SDS011;6779;50.150;8.680;2022-07-29T02:19:38;6.10;;;1.80;;
13415;SDS011;6779;50.150;8.680;2022-07-29T02:22:05;2.40;;;1.30;;
13415;SDS011;6779;50.150;8.680;2022-07-29T02:24:32;1.50;;;1.40;;
13415;SDS011;6779;50.150;8.680;2022-07-29T02:27:00;2.53;;;1.53;;
13415;SDS011;6779;50.150;8.680;2022-07-29T02:29:27;2.50;;;1.47;;
13415;SDS011;6779;50.150;8.680;2022-07-29T02:31:55;3.07;;;1.33;;
13415;SDS011;6779;50.150;8.680;2022-07-29T02:34:23;5.23;;;1.70;;
13415;SDS011;6779;50.150;8.680;2022-07-29T02:36:50;2.60;;;1.43;;
13415;SDS011;6779;50.150;8.680;2022-07-29T02:39:17;1.97;;;1.60;;
13415;SDS011;6779;50.150;8.680;2022-07-29T02:41:47;2.00;;;1.67;;
13415;SDS011;6779;50.150;8.680;2022-07-29T02:44:19;2.37;;;1.50;;
13415;SDS011;6779;50.150;8.680;2022-07-29T02:47:30;4.37;;;1.80;;
13415;SDS011;6779;50.150;8.680;2022-07-29T02:52:18;1.93;;;1.63;;
13415;SDS011;6779;50.150;8.680;2022-07-29T02:55:01;2.80;;;1.80;;
13415;SDS011;6779;50.150;8.680;2022-07-29T02:57:41;3.87;;;1.53;;
13415;SDS011;6779;50.150;8.680;2022-07-29T03:00:16;2.40;;;1.67;;
13415;SDS011;6779;50.150;8.680;2022-07-29T03:02:44;2.97;;;1.67;;
13415;SDS011;6779;50.150;8.680;2022-07-29T03:05:16;2.60;;;1.80;;
13415;SDS011;6779;50.150;8.680;2022-07-29T03:07:43;3.03;;;1.60;;
13415;SDS011;6779;50.150;8.680;2022-07-29T03:10:12;3.57;;;1.90;;
13415;SDS011;6779;50.150;8.680;2022-07-29T03:12:38;2.80;;;1.70;;
13415;SDS011;6779;50.150;8.680;2022-07-29T03:15:06;3.17;;;1.70;;
13415;SDS011;6779;50.150;8.680;2022-07-29T03:17:33;2.93;;;1.70;;
13415;SDS011;6779;50.150;8.680;2022-07-29T03:19:59;2.33;;;1.73;;
13415;SDS011;6779;50.150;8.680;2022-07-29T03:22:25;2.00;;;1.80;;
13415;SDS011;6779;50.150;8.680;2022-07-29T03:24:51;3.37;;;2.40;;
13415;SDS011;6779;50.150;8.680;2022-07-29T03:27:17;3.57;;;2.10;;
13415;SDS011;6779;50.150;8.680;2022-07-29T03:29:42;2.20;;;1.80;;
13415;SDS011;6779;50.150;8.680;2022-07-29T03:32:08;2.13;;;1.83;;
13415;SDS011;6779;50.150;8.680;2022-07-29T03:34:34;3.03;;;1.70;;
13415;SDS011;6779;50.150;8.680;2022-07-29T03:37:01;3.50;;;1.83;;
13415;SDS011;6779;50.150;8.680;2022-07-29T03:39:27;4.50;;;1.67;;
13415;SDS011;6779;50.150;8.680;2022-07-29T03:41:57;2.23;;;1.77;;
13415;SDS011;6779;50.150;8.680;2022-07-29T03:44:25;1.60;;;1.50;;
13415;SDS011;6779;50.150;8.680;2022-07-29T03:46:52;2.73;;;1.70;;
13415;SDS011;6779;50.150;8.680;2022-07-29T03:49:20;3.73;;;2.20;;
13415;SDS011;6779;50.150;8.680;2022-07-29T03:51:47;2.33;;;1.67;;
13415;SDS011;6779;50.150;8.680;2022-07-29T03:54:12;2.33;;;1.73;;
13415;SDS011;6779;50.150;8.680;2022-07-29T03:56:40;3.23;;;2.00;;
13415;SDS011;6779;50.150;8.680;2022-07-29T03:59:08;4.33;;;2.10;;
13415;SDS011;6779;50.150;8.680;2022-07-29T04:01:35;2.37;;;1.83;;
13415;SDS011;6779;50.150;8.680;2022-07-29T04:04:04;3.80;;;1.63;;
13415;SDS011;6779;50.150;8.680;2022-07-29T04:06:37;1.80;;;1.60;;
13415;SDS011;6779;50.150;8.680;2022-07-29T04:09:06;2.50;;;1.57;;
13415;SDS011;6779;50.150;8.680;2022-07-29T04:11:32;3.20;;;1.53;;
13415;SDS011;6779;50.150;8.680;2022-07-29T04:13:59;2.70;;;2.23;;
13415;SDS011;6779;50.150;8.680;2022-07-29T04:16:24;1.83;;;1.60;;
13415;SDS011;6779;50.150;8.680;2022-07-29T04:18:50;2.80;;;2.00;;
13415;SDS011;6779;50.150;8.680;2022-07-29T04:21:15;2.20;;;1.83;;
13415;SDS011;6779;50.150;8.680;2022-07-29T04:23:41;4.30;;;1.73;;
13415;SDS011;6779;50.150;8.680;2022-07-29T04:26:10;2.00;;;1.53;;
13415;SDS011;6779;50.150;8.680;2022-07-29T04:28:35;1.93;;;1.67;;
13415;SDS011;6779;50.150;8.680;2022-07-29T04:31:03;2.70;;;1.60;;
13415;SDS011;6779;50.150;8.680;2022-07-29T04:33:28;2.33;;;1.63;;
13415;SDS011;6779;50.150;8.680;2022-07-29T04:35:54;3.37;;;1.63;;
13415;SDS011;6779;50.150;8.680;2022-07-29T04:38:19;2.30;;;1.83;;
13415;SDS011;6779;50.150;8.680;2022-07-29T04:40:45;4.80;;;1.80;;
13415;SDS011;6779;50.150;8.680;2022-07-29T04:43:11;3.70;;;2.03;;
13415;SDS011;6779;50.150;8.680;2022-07-29T04:45:36;3.20;;;1.60;;
13415;SDS011;6779;50.150;8.680;2022-07-29T04:48:02;1.97;;;1.83;;
13415;SDS011;6779;50.150;8.680;2022-07-29T04:50:27;2.13;;;1.70;;
13415;SDS011;6779;50.150;8.680;2022-07-29T04:52:53;3.87;;;1.60;;
13415;SDS011;6779;50.150;8.680;2022-07-29T04:55:19;6.90;;;1.50;;
13415;SDS011;6779;50.150;8.680;2022-07-29T04:57:44;2.20;;;1.87;;
13415;SDS011;6779;50.150;8.680;2022-07-29T05:00:10;3.80;;;1.60;;
13415;SDS011;6779;50.150;8.680;2022-07-29T05:02:36;2.23;;;1.93;;
13415;SDS011;6779;50.150;8.680;2022-07-29T05:05:01;2.90;;;1.70;;
13415;SDS011;6779;50.150;8.680;2022-07-29T05:07:27;3.37;;;1.87;;
13415;SDS011;6779;50.150;8.680;2022-07-29T05:09:53;2.90;;;1.80;;
13415;SDS011;6779;50.150;8.680;2022-07-29T05:12:18;2.03;;;1.60;;
13415;SDS011;6779;50.150;8.680;2022-07-29T05:14:44;2.70;;;1.57;;
13415;SDS011;6779;50.150;8.680;2022-07-29T05:17:09;1.70;;;1.60;;
13415;SDS011;6779;50.150;8.680;2022-07-29T05:19:35;2.27;;;1.77;;
13415;SDS011;6779;50.150;8.680;2022-07-29T05:22:00;2.30;;;1.67;;
13415;SDS011;6779;50.150;8.680;2022-07-29T05:24:26;3.10;;;1.73;;
13415;SDS011;6779;50.150;8.680;2022-07-29T05:26:52;5.00;;;1.70;;
13415;SDS011;6779;50.150;8.680;2022-07-29T05:29:17;2.80;;;1.77;;
13415;SDS011;6779;50.150;8.680;2022-07-29T05:31:43;2.30;;;1.50;;
13415;SDS011;6779;50.150;8.680;2022-07-29T05:34:09;4.73;;;1.93;;
13415;SDS011;6779;50.150;8.680;2022-07-29T05:36:34;2.90;;;1.40;;
13415;SDS011;6779;50.150;8.680;2022-07-29T05:39:00;2.60;;;1.47;;
13415;SDS011;6779;50.150;8.680;2022-07-29T05:41:25;2.63;;;1.87;;
13415;SDS011;6779;50.150;8.680;2022-07-29T05:43:51;3.90;;;1.47;;
13415;SDS011;6779;50.150;8.680;2022-07-29T05:46:16;2.37;;;1.83;;
13415;SDS011;6779;50.150;8.680;2022-07-29T05:48:42;3.00;;;2.10;;
13415;SDS011;6779;50.150;8.680;2022-07-29T05:51:08;2.90;;;1.60;;
13415;SDS011;6779;50.150;8.680;2022-07-29T05:53:33;2.83;;;1.80;;
13415;SDS011;6779;50.150;8.680;2022-07-29T05:56:02;2.30;;;1.50;;
13415;SDS011;6779;50.150;8.680;2022-07-29T05:58:29;2.70;;;1.70;;
13415;SDS011;6779;50.150;8.680;2022-07-29T06:00:54;1.97;;;1.53;;
13415;SDS011;6779;50.150;8.680;2022-07-29T06:03:23;1.37;;;1.27;;
13415;SDS011;6779;50.150;8.680;2022-07-29T06:05:50;7.37;;;1.90;;
13415;SDS011;6779;50.150;8.680;2022-07-29T06:08:15;3.53;;;1.80;;
13415;SDS011;6779;50.150;8.680;2022-07-29T06:10:42;1.60;;;1.40;;
13415;SDS011;6779;50.150;8.680;2022-07-29T06:13:08;2.43;;;1.80;;
13415;SDS011;6779;50.150;8.680;2022-07-29T06:15:33;5.87;;;1.70;;
13415;SDS011;6779;50.150;8.680;2022-07-29T06:17:59;2.70;;;1.87;;
13415;SDS011;6779;50.150;8.680;2022-07-29T06:20:25;1.97;;;1.60;;
13415;SDS011;6779;50.150;8.680;2022-07-29T06:22:51;1.67;;;1.20;;
13415;SDS011;6779;50.150;8.680;2022-07-29T06:25:17;2.27;;;1.40;;
13415;SDS011;6779;50.150;8.680;2022-07-29T06:27:43;4.20;;;1.80;;
13415;SDS011;6779;50.150;8.680;2022-07-29T06:30:08;2.40;;;1.67;;
13415;SDS011;6779;50.150;8.680;2022-07-29T06:32:35;2.47;;;1.47;;
13415;SDS011;6779;50.150;8.680;2022-07-29T06:35:00;3.43;;;1.93;;
13415;SDS011;6779;50.150;8.680;2022-07-29T06:37:26;2.43;;;1.60;;
13415;SDS011;6779;50.150;8.680;2022-07-29T06:39:51;3.90;;;2.10;;
13415;SDS011;6779;50.150;8.680;2022-07-29T06:42:37;2.00;;;1.63;;
13415;SDS011;6779;50.150;8.680;2022-07-29T06:45:06;2.50;;;1.70;;
13415;SDS011;6779;50.150;8.680;2022-07-29T06:47:32;2.83;;;2.30;;
13415;SDS011;6779;50.150;8.680;2022-07-29T06:49:58;2.73;;;1.90;;
13415;SDS011;6779;50.150;8.680;2022-07-29T06:52:23;2.90;;;1.80;;
13415;SDS011;6779;50.150;8.680;2022-07-29T06:54:50;2.77;;;1.80;;
13415;SDS011;6779;50.150;8.680;2022-07-29T06:57:16;3.00;;;1.90;;
13415;SDS011;6779;50.150;8.680;2022-07-29T06:59:41;2.03;;;1.67;;
13415;SDS011;6779;50.150;8.680;2022-07-29T07:02:07;3.60;;;1.80;;
13415;SDS011;6779;50.150;8.680;2022-07-29T07:04:32;2.20;;;1.60;;
13415;SDS011;6779;50.150;8.680;2022-07-29T07:06:58;2.43;;;1.50;;
13415;SDS011;6779;50.150;8.680;2022-07-29T07:09:24;1.93;;;1.33;;
13415;SDS011;6779;50.150;8.680;2022-07-29T07:11:50;2.37;;;1.70;;
13415;SDS011;6779;50.150;8.680;2022-07-29T07:14:15;2.43;;;1.57;;
13415;SDS011;6779;50.150;8.680;2022-07-29T07:16:41;3.27;;;1.90;;
13415;SDS011;6779;50.150;8.680;2022-07-29T07:19:07;3.35;;;1.63;;
13415;SDS011;6779;50.150;8.680;2022-07-29T07:21:32;3.03;;;1.90;;
13415;SDS011;6779;50.150;8.680;2022-07-29T07:23:58;2.67;;;1.50;;
13415;SDS011;6779;50.150;8.680;2022-07-29T07:26:24;3.07;;;1.90;;
13415;SDS011;6779;50.150;8.680;2022-07-29T07:28:50;1.77;;;1.53;;
13415;SDS011;6779;50.150;8.680;2022-07-29T07:31:15;1.70;;;1.60;;
13415;SDS011;6779;50.150;8.680;2022-07-29T07:33:41;1.80;;;1.67;;
13415;SDS011;6779;50.150;8.680;2022-07-29T07:36:07;1.60;;;1.50;;
13415;SDS011;6779;50.150;8.680;2022-07-29T07:38:32;2.70;;;1.93;;
13415;SDS011;6779;50.150;8.680;2022-07-29T07:40:58;3.73;;;2.03;;
13415;SDS011;6779;50.150;8.680;2022-07-29T07:43:24;2.80;;;1.73;;
13415;SDS011;6779;50.150;8.680;2022-07-29T07:45:50;3.43;;;2.00;;
13415;SDS011;6779;50.150;8.680;2022-07-29T07:48:15;2.23;;;1.77;;
13415;SDS011;6779;50.150;8.680;2022-07-29T07:50:41;2.53;;;1.83;;
13415;SDS011;6779;50.150;8.680;2022-07-29T07:53:06;3.23;;;1.80;;
13415;SDS011;6779;50.150;8.680;2022-07-29T07:55:32;2.77;;;1.77;;
13415;SDS011;6779;50.150;8.680;2022-07-29T07:57:57;2.60;;;1.60;;
13415;SDS011;6779;50.150;8.680;2022-07-29T08:00:23;2.00;;;1.60;;
13415;SDS011;6779;50.150;8.680;2022-07-29T08:02:49;4.53;;;2.33;;
13415;SDS011;6779;50.150;8.680;2022-07-29T08:05:15;3.50;;;1.80;;
13415;SDS011;6779;50.150;8.680;2022-07-29T08:07:44;3.03;;;1.80;;
13415;SDS011;6779;50.150;8.680;2022-07-29T08:10:10;2.10;;;1.70;;
13415;SDS011;6779;50.150;8.680;2022-07-29T08:12:36;2.87;;;2.17;;
13415;SDS011;6779;50.150;8.680;2022-07-29T08:15:01;1.77;;;1.60;;
13415;SDS011;6779;50.150;8.680;2022-07-29T08:17:27;2.47;;;1.83;;
13415;SDS011;6779;50.150;8.680;2022-07-29T08:19:53;3.70;;;1.83;;
13415;SDS011;6779;50.150;8.680;2022-07-29T08:22:19;4.77;;;1.77;;
13415;SDS011;6779;50.150;8.680;2022-07-29T08:24:44;2.10;;;1.67;;
13415;SDS011;6779;50.150;8.680;2022-07-29T08:27:21;5.53;;;2.10;;
13415;SDS011;6779;50.150;8.680;2022-07-29T08:29:46;3.40;;;2.07;;
13415;SDS011;6779;50.150;8.680;2022-07-29T08:32:12;4.40;;;1.87;;
13415;SDS011;6779;50.150;8.680;2022-07-29T08:34:38;2.67;;;2.13;;
13415;SDS011;6779;50.150;8.680;2022-07-29T08:37:04;2.77;;;2.10;;
13415;SDS011;6779;50.150;8.680;2022-07-29T08:39:29;5.47;;;1.97;;
13415;SDS011;6779;50.150;8.680;2022-07-29T08:41:55;2.27;;;1.70;;
13415;SDS011;6779;50.150;8.680;2022-07-29T08:44:20;2.73;;;1.90;;
13415;SDS011;6779;50.150;8.680;2022-07-29T08:46:47;2.83;;;1.97;;
13415;SDS011;6779;50.150;8.680;2022-07-29T08:49:14;5.00;;;1.73;;
13415;SDS011;6779;50.150;8.680;2022-07-29T08:51:40;2.80;;;1.80;;
13415;SDS011;6779;50.150;8.680;2022-07-29T08:54:08;1.70;;;1.60;;
13415;SDS011;6779;50.150;8.680;2022-07-29T08:56:34;1.97;;;1.77;;
13415;SDS011;6779;50.150;8.680;2022-07-29T08:59:02;1.80;;;1.70;;
13415;SDS011;6779;50.150;8.680;2022-07-29T09:01:30;3.07;;;1.93;;
13415;SDS011;6779;50.150;8.680;2022-07-29T09:03:58;2.43;;;1.80;;
13415;SDS011;6779;50.150;8.680;2022-07-29T09:06:27;5.50;;;2.00;;
13415;SDS011;6779;50.150;8.680;2022-07-29T09:08:58;2.70;;;1.80;;
13415;SDS011;6779;50.150;8.680;2022-07-29T09:11:24;2.23;;;1.87;;
13415;SDS011;6779;50.150;8.680;2022-07-29T09:13:50;2.63;;;1.63;;
13415;SDS011;6779;50.150;8.680;2022-07-29T09:16:16;2.60;;;1.97;;
13415;SDS011;6779;50.150;8.680;2022-07-29T09:18:43;2.65;;;1.77;;
13415;SDS011;6779;50.150;8.680;2022-07-29T09:21:12;3.72;;;2.08;;
13415;SDS011;6779;50.150;8.680;2022-07-29T09:26:35;3.28;;;2.00;;
13415;SDS011;6779;50.150;8.680;2022-07-29T09:29:16;2.15;;;1.73;;
13415;SDS011;6779;50.150;8.680;2022-07-29T09:31:44;3.20;;;2.05;;
13415;SDS011;6779;50.150;8.680;2022-07-29T09:34:14;2.60;;;1.60;;
13415;SDS011;6779;50.150;8.680;2022-07-29T09:39:11;1.95;;;1.77;;
13415;SDS011;6779;50.150;8.680;2022-07-29T09:41:50;3.00;;;2.70;;
13415;SDS011;6779;50.150;8.680;2022-07-29T09:44:21;4.18;;;1.52;;
13415;SDS011;6779;50.150;8.680;2022-07-29T09:46:57;4.13;;;1.92;;
13415;SDS011;6779;50.150;8.680;2022-07-29T09:49:31;2.42;;;1.58;;
13415;SDS011;6779;50.150;8.680;2022-07-29T09:52:05;1.65;;;1.50;;
13415;SDS011;6779;50.150;8.680;2022-07-29T09:54:32;2.03;;;1.75;;
13415;SDS011;6779;50.150;8.680;2022-07-29T09:57:04;1.98;;;1.60;;
13415;SDS011;6779;50.150;8.680;2022-07-29T09:59:31;1.85;;;1.75;;
13415;SDS011;6779;50.150;8.680;2022-07-29T10:01:57;3.70;;;1.48;;
13415;SDS011;6779;50.150;8.680;2022-07-29T10:04:22;1.98;;;1.77;;
13415;SDS011;6779;50.150;8.680;2022-07-29T10:09:25;2.28;;;1.70;;
13415;SDS011;6779;50.150;8.680;2022-07-29T10:12:07;1.80;;;1.70;;
13415;SDS011;6779;50.150;8.680;2022-07-29T10:14:40;3.33;;;1.83;;
13415;SDS011;6779;50.150;8.680;2022-07-29T10:17:07;2.00;;;1.73;;
13415;SDS011;6779;50.150;8.680;2022-07-29T10:19:34;1.85;;;1.63;;
13415;SDS011;6779;50.150;8.680;2022-07-29T10:22:02;2.33;;;1.70;;
13415;SDS011;6779;50.150;8.680;2022-07-29T10:24:31;2.78;;;1.95;;
13415;SDS011;6779;50.150;8.680;2022-07-29T10:27:00;2.00;;;1.83;;
13415;SDS011;6779;50.150;8.680;2022-07-29T10:29:27;2.45;;;1.92;;
13415;SDS011;6779;50.150;8.680;2022-07-29T10:43:26;2.05;;;1.80;;
13415;SDS011;6779;50.150;8.680;2022-07-29T10:45:55;1.95;;;1.70;;
13415;SDS011;6779;50.150;8.680;2022-07-29T10:48:24;1.50;;;1.40;;
13415;SDS011;6779;50.150;8.680;2022-07-29T10:53:24;2.03;;;1.92;;
13415;SDS011;6779;50.150;8.680;2022-07-29T10:56:22;2.35;;;1.75;;
13415;SDS011;6779;50.150;8.680;2022-07-29T11:01:56;2.03;;;1.83;;
13415;SDS011;6779;50.150;8.680;2022-07-29T11:07:09;1.50;;;1.40;;
13415;SDS011;6779;50.150;8.680;2022-07-29T11:09:35;1.60;;;1.50;;
13415;SDS011;6779;50.150;8.680;2022-07-29T11:12:01;2.83;;;1.38;;
13415;SDS011;6779;50.150;8.680;2022-07-29T11:17:25;2.17;;;1.83;;
13415;SDS011;6779;50.150;8.680;2022-07-29T11:19:50;2.00;;;1.70;;
13415;SDS011;6779;50.150;8.680;2022-07-29T11:22:32;2.15;;;1.85;;
13415;SDS011;6779;50.150;8.680;2022-07-29T11:25:14;2.15;;;1.92;;
13415;SDS011;6779;50.150;8.680;2022-07-29T11:27:41;2.25;;;2.05;;
13415;SDS011;6779;50.150;8.680;2022-07-29T11:30:08;3.78;;;1.73;;
13415;SDS011;6779;50.150;8.680;2022-07-29T11:32:38;2.80;;;1.95;;
13415;SDS011;6779;50.150;8.680;2022-07-29T11:37:40;1.90;;;1.80;;
13415;SDS011;6779;50.150;8.680;2022-07-29T11:50:11;2.58;;;2.17;;
13415;SDS011;6779;50.150;8.680;2022-07-29T11:52:42;2.15;;;1.95;;
13415;SDS011;6779;50.150;8.680;2022-07-29T11:55:12;2.00;;;1.70;;
13415;SDS011;6779;50.150;8.680;2022-07-29T11:57:53;2.05;;;1.83;;
13415;SDS011;6779;50.150;8.680;2022-07-29T12:02:58;2.80;;;2.38;;
13415;SDS011;6779;50.150;8.680;2022-07-29T12:05:38;2.20;;;2.00;;
13415;SDS011;6779;50.150;8.680;2022-07-29T12:08:06;2.55;;;2.08;;
13415;SDS011;6779;50.150;8.680;2022-07-29T12:10:33;1.92;;;1.83;;
13415;SDS011;6779;50.150;8.680;2022-07-29T12:12:59;2.88;;;1.90;;
13415;SDS011;6779;50.150;8.680;2022-07-29T12:15:25;2.20;;;2.00;;
13415;SDS011;6779;50.150;8.680;2022-07-29T12:17:51;2.70;;;2.08;;
13415;SDS011;6779;50.150;8.680;2022-07-29T12:20:26;4.00;;;2.20;;
13415;SDS011;6779;50.150;8.680;2022-07-29T12:22:55;2.53;;;2.30;;
13415;SDS011;6779;50.150;8.680;2022-07-29T12:25:22;2.42;;;2.22;;
13415;SDS011;6779;50.150;8.680;2022-07-29T12:27:59;2.33;;;2.13;;
13415;SDS011;6779;50.150;8.680;2022-07-29T12:30:33;2.15;;;1.95;;
13415;SDS011;6779;50.150;8.680;2022-07-29T12:33:27;2.55;;;2.10;;
13415;SDS011;6779;50.150;8.680;2022-07-29T12:35:56;2.15;;;1.85;;
13415;SDS011;6779;50.150;8.680;2022-07-29T12:38:23;3.15;;;2.10;;
13415;SDS011;6779;50.150;8.680;2022-07-29T12:40:49;2.17;;;2.03;;
13415;SDS011;6779;50.150;8.680;2022-07-29T12:43:19;3.47;;;2.22;;
13415;SDS011;6779;50.150;8.680;2022-07-29T12:45:47;2.80;;;1.95;;
13415;SDS011;6779;50.150;8.680;2022-07-29T12:48:15;5.40;;;2.50;;
13415;SDS011;6779;50.150;8.680;2022-07-29T12:50:58;2.55;;;1.95;;
13415;SDS011;6779;50.150;8.680;2022-07-29T12:53:24;2.65;;;2.13;;
13415;SDS011;6779;50.150;8.680;2022-07-29T12:55:51;3.40;;;2.38;;
13415;SDS011;6779;50.150;8.680;2022-07-29T12:58:29;2.40;;;2.20;;
13415;SDS011;6779;50.150;8.680;2022-07-29T13:01:09;2.58;;;2.28;;
13415;SDS011;6779;50.150;8.680;2022-07-29T13:09:10;2.55;;;2.33;;
13415;SDS011;6779;50.150;8.680;2022-07-29T13:11:44;1.90;;;1.80;;
13415;SDS011;6779;50.150;8.680;2022-07-29T13:17:08;2.30;;;2.10;;
13415;SDS011;6779;50.150;8.680;2022-07-29T13:20:03;2.78;;;2.50;;
13415;SDS011;6779;50.150;8.680;2022-07-29T13:22:30;4.65;;;2.40;;
13415;SDS011;6779;50.150;8.680;2022-07-29T13:24:57;3.05;;;2.05;;
13415;SDS011;6779;50.150;8.680;2022-07-29T13:27:28;2.60;;;2.40;;
13415;SDS011;6779;50.150;8.680;2022-07-29T13:29:57;2.45;;;2.15;;
13415;SDS011;6779;50.150;8.680;2022-07-29T13:32:25;4.38;;;1.92;;
13415;SDS011;6779;50.150;8.680;2022-07-29T13:34:52;3.80;;;1.95;;
13415;SDS011;6779;50.150;8.680;2022-07-29T13:37:18;3.00;;;2.13;;
13415;SDS011;6779;50.150;8.680;2022-07-29T13:39:44;2.95;;;2.17;;
13415;SDS011;6779;50.150;8.680;2022-07-29T13:42:10;2.85;;;2.10;;
13415;SDS011;6779;50.150;8.680;2022-07-29T13:44:39;2.28;;;2.08;;
13415;SDS011;6779;50.150;8.680;2022-07-29T13:47:06;2.20;;;2.10;;
13415;SDS011;6779;50.150;8.680;2022-07-29T13:49:32;3.92;;;2.13;;
13415;SDS011;6779;50.150;8.680;2022-07-29T13:51:58;2.55;;;2.33;;
13415;SDS011;6779;50.150;8.680;2022-07-29T13:54:24;2.78;;;2.30;;
13415;SDS011;6779;50.150;8.680;2022-07-29T13:56:50;4.35;;;2.20;;
13415;SDS011;6779;50.150;8.680;2022-07-29T13:59:16;3.55;;;2.20;;
13415;SDS011;6779;50.150;8.680;2022-07-29T14:01:41;3.00;;;2.63;;
13415;SDS011;6779;50.150;8.680;2022-07-29T14:04:07;6.13;;;2.45;;
13415;SDS011;6779;50.150;8.680;2022-07-29T14:06:34;2.35;;;2.10;;
13415;SDS011;6779;50.150;8.680;2022-07-29T14:08:59;2.25;;;2.05;;
13415;SDS011;6779;50.150;8.680;2022-07-29T14:11:25;2.55;;;2.00;;
13415;SDS011;6779;50.150;8.680;2022-07-29T14:13:51;3.28;;;2.10;;
13415;SDS011;6779;50.150;8.680;2022-07-29T14:16:16;2.42;;;2.22;;
13415;SDS011;6779;50.150;8.680;2022-07-29T14:18:42;2.78;;;2.15;;
13415;SDS011;6779;50.150;8.680;2022-07-29T14:21:07;2.33;;;2.10;;
13415;SDS011;6779;50.150;8.680;2022-07-29T14:23:33;2.60;;;2.20;;
13415;SDS011;6779;50.150;8.680;2022-07-29T14:25:59;2.88;;;2.40;;
13415;SDS011;6779;50.150;8.680;2022-07-29T14:28:24;2.45;;;2.25;;
13415;SDS011;6779;50.150;8.680;2022-07-29T14:30:50;2.80;;;2.17;;
13415;SDS011;6779;50.150;8.680;2022-07-29T14:33:16;3.83;;;3.03;;
13415;SDS011;6779;50.150;8.680;2022-07-29T14:35:41;3.25;;;2.63;;
13415;SDS011;6779;50.150;8.680;2022-07-29T14:38:07;3.25;;;2.50;;
13415;SDS011;6779;50.150;8.680;2022-07-29T14:40:33;6.28;;;2.85;;
13415;SDS011;6779;50.150;8.680;2022-07-29T14:42:58;2.55;;;2.35;;
13415;SDS011;6779;50.150;8.680;2022-07-29T14:45:24;3.15;;;2.85;;
13415;SDS011;6779;50.150;8.680;2022-07-29T14:47:50;5.45;;;2.58;;
13415;SDS011;6779;50.150;8.680;2022-07-29T14:50:15;2.85;;;2.55;;
13415;SDS011;6779;50.150;8.680;2022-07-29T14:52:42;4.25;;;2.65;;
13415;SDS011;6779;50.150;8.680;2022-07-29T14:55:07;4.20;;;2.25;;
13415;SDS011;6779;50.150;8.680;2022-07-29T14:57:34;3.72;;;2.78;;
13415;SDS011;6779;50.150;8.680;2022-07-29T14:59:59;2.58;;;2.20;;
13415;SDS011;6779;50.150;8.680;2022-07-29T15:02:26;4.47;;;2.53;;
13415;SDS011;6779;50.150;8.680;2022-07-29T15:04:52;2.55;;;2.30;;
13415;SDS011;6779;50.150;8.680;2022-07-29T15:07:17;3.00;;;2.60;;
13415;SDS011;6779;50.150;8.680;2022-07-29T15:09:43;3.97;;;2.88;;
13415;SDS011;6779;50.150;8.680;2022-07-29T15:12:10;2.40;;;2.05;;
13415;SDS011;6779;50.150;8.680;2022-07-29T15:14:36;3.40;;;2.70;;
13415;SDS011;6779;50.150;8.680;2022-07-29T15:17:02;2.33;;;2.13;;
13415;SDS011;6779;50.150;8.680;2022-07-29T15:19:27;2.28;;;2.08;;
13415;SDS011;6779;50.150;8.680;2022-07-29T15:21:53;2.90;;;2.28;;
13415;SDS011;6779;50.150;8.680;2022-07-29T15:24:19;2.38;;;2.00;;
13415;SDS011;6779;50.150;8.680;2022-07-29T15:26:45;1.95;;;1.73;;
13415;SDS011;6779;50.150;8.680;2022-07-29T15:29:11;1.67;;;1.58;;
13415;SDS011;6779;50.150;8.680;2022-07-29T15:31:38;2.20;;;1.77;;
13415;SDS011;6779;50.150;8.680;2022-07-29T15:34:03;1.90;;;1.80;;
13415;SDS011;6779;50.150;8.680;2022-07-29T15:36:30;2.15;;;1.77;;
13415;SDS011;6779;50.150;8.680;2022-07-29T15:38:55;2.08;;;1.73;;
13415;SDS011;6779;50.150;8.680;2022-07-29T15:41:21;5.32;;;2.90;;
13415;SDS011;6779;50.150;8.680;2022-07-29T15:43:47;2.75;;;1.90;;
13415;SDS011;6779;50.150;8.680;2022-07-29T15:46:14;2.30;;;1.70;;
13415;SDS011;6779;50.150;8.680;2022-07-29T15:49:00;1.70;;;1.58;;
13415;SDS011;6779;50.150;8.680;2022-07-29T15:51:27;1.35;;;1.23;;
13415;SDS011;6779;50.150;8.680;2022-07-29T15:53:52;2.28;;;1.60;;
13415;SDS011;6779;50.150;8.680;2022-07-29T15:56:18;3.10;;;1.20;;
13415;SDS011;6779;50.150;8.680;2022-07-29T15:58:44;1.92;;;1.70;;
13415;SDS011;6779;50.150;8.680;2022-07-29T16:01:09;2.45;;;1.88;;
13415;SDS011;6779;50.150;8.680;2022-07-29T16:03:35;1.70;;;1.60;;
13415;SDS011;6779;50.150;8.680;2022-07-29T16:06:01;1.77;;;1.63;;
13415;SDS011;6779;50.150;8.680;2022-07-29T16:08:26;2.63;;;1.52;;
13415;SDS011;6779;50.150;8.680;2022-07-29T16:10:52;2.25;;;1.48;;
13415;SDS011;6779;50.150;8.680;2022-07-29T16:13:18;2.33;;;1.70;;